sensor_id;sensor_type;location;lat;lon;timestamp;P1;durP1;ratioP1;P2;durP2;ratioP2
17482;SDS011;8858;52.308;20.994;2022-10-31T00:01:38;23.23;;;20.53;;
17482;SDS011;8858;52.308;20.994;2022-10-31T00:04:06;22.17;;;19.63;;
17482;SDS011;8858;52.308;20.994;2022-10-31T00:06:35;23.20;;;20.70;;
17482;SDS011;8858;52.308;20.994;2022-10-31T00:09:05;27.17;;;21.00;;
17482;SDS011;8858;52.308;20.994;2022-10-31T00:11:37;23.37;;;20.27;;
17482;SDS011;8858;52.308;20.994;2022-10-31T00:14:05;24.97;;;20.90;;
17482;SDS011;8858;52.308;20.994;2022-10-31T00:16:34;25.80;;;20.37;;
17482;SDS011;8858;52.308;20.994;2022-10-31T00:19:05;25.17;;;19.93;;
17482;SDS011;8858;52.308;20.994;2022-10-31T00:21:35;127.23;;;102.30;;
17482;SDS011;8858;52.308;20.994;2022-10-31T00:24:06;79.63;;;60.40;;
17482;SDS011;8858;52.308;20.994;2022-10-31T00:26:37;32.60;;;26.37;;
17482;SDS011;8858;52.308;20.994;2022-10-31T00:29:05;30.00;;;23.67;;
17482;SDS011;8858;52.308;20.994;2022-10-31T00:31:34;30.03;;;23.00;;
17482;SDS011;8858;52.308;20.994;2022-10-31T00:34:02;26.53;;;20.70;;
17482;SDS011;8858;52.308;20.994;2022-10-31T00:36:34;25.00;;;20.63;;
17482;SDS011;8858;52.308;20.994;2022-10-31T00:39:10;26.53;;;20.23;;
17482;SDS011;8858;52.308;20.994;2022-10-31T00:41:42;25.60;;;20.10;;
17482;SDS011;8858;52.308;20.994;2022-10-31T00:44:11;23.30;;;17.83;;
17482;SDS011;8858;52.308;20.994;2022-10-31T00:46:40;27.87;;;18.30;;
17482;SDS011;8858;52.308;20.994;2022-10-31T00:49:09;22.37;;;17.63;;
17482;SDS011;8858;52.308;20.994;2022-10-31T00:51:38;23.37;;;18.10;;
17482;SDS011;8858;52.308;20.994;2022-10-31T00:54:12;26.40;;;19.70;;
17482;SDS011;8858;52.308;20.994;2022-10-31T00:56:44;23.20;;;18.17;;
17482;SDS011;8858;52.308;20.994;2022-10-31T00:59:12;27.43;;;17.83;;
17482;SDS011;8858;52.308;20.994;2022-10-31T01:01:41;22.03;;;18.23;;
17482;SDS011;8858;52.308;20.994;2022-10-31T01:04:10;22.30;;;18.43;;
17482;SDS011;8858;52.308;20.994;2022-10-31T01:06:38;24.07;;;18.40;;
17482;SDS011;8858;52.308;20.994;2022-10-31T01:09:07;20.63;;;18.00;;
17482;SDS011;8858;52.308;20.994;2022-10-31T01:11:36;23.47;;;18.13;;
17482;SDS011;8858;52.308;20.994;2022-10-31T01:14:08;24.10;;;18.27;;
17482;SDS011;8858;52.308;20.994;2022-10-31T01:16:36;23.13;;;19.13;;
17482;SDS011;8858;52.308;20.994;2022-10-31T01:19:06;20.40;;;18.00;;
17482;SDS011;8858;52.308;20.994;2022-10-31T01:21:37;24.70;;;18.50;;
17482;SDS011;8858;52.308;20.994;2022-10-31T01:24:06;23.00;;;18.13;;
17482;SDS011;8858;52.308;20.994;2022-10-31T01:26:38;28.27;;;19.53;;
17482;SDS011;8858;52.308;20.994;2022-10-31T01:29:08;25.50;;;19.93;;
17482;SDS011;8858;52.308;20.994;2022-10-31T01:31:40;26.37;;;20.93;;
17482;SDS011;8858;52.308;20.994;2022-10-31T01:34:09;29.47;;;21.80;;
17482;SDS011;8858;52.308;20.994;2022-10-31T01:36:44;34.57;;;24.53;;
17482;SDS011;8858;52.308;20.994;2022-10-31T01:39:18;25.47;;;22.67;;
17482;SDS011;8858;52.308;20.994;2022-10-31T01:41:49;31.17;;;24.13;;
17482;SDS011;8858;52.308;20.994;2022-10-31T01:47:21;30.13;;;25.77;;
17482;SDS011;8858;52.308;20.994;2022-10-31T01:50:00;30.70;;;26.30;;
17482;SDS011;8858;52.308;20.994;2022-10-31T01:52:36;31.27;;;26.03;;
17482;SDS011;8858;52.308;20.994;2022-10-31T01:55:10;32.10;;;26.40;;
17482;SDS011;8858;52.308;20.994;2022-10-31T01:57:45;35.73;;;27.80;;
17482;SDS011;8858;52.308;20.994;2022-10-31T02:00:16;34.47;;;28.03;;
17482;SDS011;8858;52.308;20.994;2022-10-31T02:02:46;32.50;;;25.47;;
17482;SDS011;8858;52.308;20.994;2022-10-31T02:05:22;29.57;;;25.57;;
17482;SDS011;8858;52.308;20.994;2022-10-31T02:07:54;32.10;;;25.83;;
17482;SDS011;8858;52.308;20.994;2022-10-31T02:10:28;35.63;;;29.50;;
17482;SDS011;8858;52.308;20.994;2022-10-31T02:13:01;33.70;;;26.83;;
17482;SDS011;8858;52.308;20.994;2022-10-31T02:15:42;33.73;;;25.53;;
17482;SDS011;8858;52.308;20.994;2022-10-31T02:18:13;33.10;;;25.77;;
17482;SDS011;8858;52.308;20.994;2022-10-31T02:20:46;33.43;;;25.47;;
17482;SDS011;8858;52.308;20.994;2022-10-31T02:26:32;32.40;;;25.17;;
17482;SDS011;8858;52.308;20.994;2022-10-31T02:29:37;35.53;;;27.13;;
17482;SDS011;8858;52.308;20.994;2022-10-31T02:32:42;32.97;;;24.70;;
17482;SDS011;8858;52.308;20.994;2022-10-31T02:35:26;31.07;;;26.07;;
17482;SDS011;8858;52.308;20.994;2022-10-31T02:38:06;32.70;;;27.83;;
17482;SDS011;8858;52.308;20.994;2022-10-31T02:40:47;34.13;;;26.63;;
17482;SDS011;8858;52.308;20.994;2022-10-31T02:43:40;35.50;;;25.93;;
17482;SDS011;8858;52.308;20.994;2022-10-31T02:46:19;32.03;;;26.47;;
17482;SDS011;8858;52.308;20.994;2022-10-31T02:48:59;33.33;;;27.03;;
17482;SDS011;8858;52.308;20.994;2022-10-31T02:51:32;35.47;;;26.20;;
17482;SDS011;8858;52.308;20.994;2022-10-31T02:54:05;37.57;;;26.40;;
17482;SDS011;8858;52.308;20.994;2022-10-31T02:56:44;35.10;;;26.80;;
17482;SDS011;8858;52.308;20.994;2022-10-31T02:59:12;32.10;;;26.70;;
17482;SDS011;8858;52.308;20.994;2022-10-31T03:01:51;33.13;;;26.23;;
17482;SDS011;8858;52.308;20.994;2022-10-31T03:07:41;30.70;;;26.43;;
17482;SDS011;8858;52.308;20.994;2022-10-31T03:10:17;33.90;;;26.00;;
17482;SDS011;8858;52.308;20.994;2022-10-31T03:12:56;32.63;;;25.60;;
17482;SDS011;8858;52.308;20.994;2022-10-31T03:15:31;33.37;;;25.73;;
17482;SDS011;8858;52.308;20.994;2022-10-31T03:18:03;34.23;;;26.57;;
17482;SDS011;8858;52.308;20.994;2022-10-31T03:20:37;34.40;;;27.83;;
17482;SDS011;8858;52.308;20.994;2022-10-31T03:23:10;34.57;;;26.70;;
17482;SDS011;8858;52.308;20.994;2022-10-31T03:25:48;37.83;;;27.47;;
17482;SDS011;8858;52.308;20.994;2022-10-31T03:28:25;34.77;;;27.67;;
17482;SDS011;8858;52.308;20.994;2022-10-31T03:30:57;33.90;;;26.97;;
17482;SDS011;8858;52.308;20.994;2022-10-31T03:33:35;35.30;;;27.20;;
17482;SDS011;8858;52.308;20.994;2022-10-31T03:36:08;32.47;;;25.03;;
17482;SDS011;8858;52.308;20.994;2022-10-31T03:38:39;34.03;;;26.53;;
17482;SDS011;8858;52.308;20.994;2022-10-31T03:41:10;33.73;;;27.40;;
17482;SDS011;8858;52.308;20.994;2022-10-31T03:43:46;32.30;;;26.50;;
17482;SDS011;8858;52.308;20.994;2022-10-31T03:46:20;35.80;;;28.47;;
17482;SDS011;8858;52.308;20.994;2022-10-31T03:48:52;35.43;;;27.43;;
17482;SDS011;8858;52.308;20.994;2022-10-31T03:51:22;35.17;;;28.13;;
17482;SDS011;8858;52.308;20.994;2022-10-31T03:53:56;35.93;;;27.97;;
17482;SDS011;8858;52.308;20.994;2022-10-31T03:56:33;34.00;;;27.47;;
17482;SDS011;8858;52.308;20.994;2022-10-31T03:59:05;37.90;;;27.77;;
17482;SDS011;8858;52.308;20.994;2022-10-31T04:01:45;33.73;;;27.90;;
17482;SDS011;8858;52.308;20.994;2022-10-31T04:04:17;35.47;;;28.43;;
17482;SDS011;8858;52.308;20.994;2022-10-31T04:06:50;35.53;;;28.70;;
17482;SDS011;8858;52.308;20.994;2022-10-31T04:09:20;35.27;;;27.40;;
17482;SDS011;8858;52.308;20.994;2022-10-31T04:11:50;36.13;;;27.37;;
17482;SDS011;8858;52.308;20.994;2022-10-31T04:14:41;33.20;;;26.83;;
17482;SDS011;8858;52.308;20.994;2022-10-31T04:17:17;32.33;;;26.90;;
17482;SDS011;8858;52.308;20.994;2022-10-31T04:19:52;34.63;;;27.17;;
17482;SDS011;8858;52.308;20.994;2022-10-31T04:22:25;33.10;;;27.57;;
17482;SDS011;8858;52.308;20.994;2022-10-31T04:24:59;39.30;;;26.73;;
17482;SDS011;8858;52.308;20.994;2022-10-31T04:27:28;33.83;;;26.93;;
17482;SDS011;8858;52.308;20.994;2022-10-31T04:29:57;35.37;;;27.70;;
17482;SDS011;8858;52.308;20.994;2022-10-31T04:32:26;33.27;;;26.33;;
17482;SDS011;8858;52.308;20.994;2022-10-31T04:34:55;35.63;;;26.77;;
17482;SDS011;8858;52.308;20.994;2022-10-31T04:37:29;34.43;;;26.87;;
17482;SDS011;8858;52.308;20.994;2022-10-31T04:40:02;34.80;;;27.77;;
17482;SDS011;8858;52.308;20.994;2022-10-31T04:43:00;33.60;;;26.33;;
17482;SDS011;8858;52.308;20.994;2022-10-31T04:45:31;33.07;;;27.20;;
17482;SDS011;8858;52.308;20.994;2022-10-31T04:48:03;35.13;;;27.33;;
17482;SDS011;8858;52.308;20.994;2022-10-31T04:50:35;34.40;;;26.97;;
17482;SDS011;8858;52.308;20.994;2022-10-31T04:53:05;31.57;;;26.90;;
17482;SDS011;8858;52.308;20.994;2022-10-31T04:55:42;34.80;;;28.67;;
17482;SDS011;8858;52.308;20.994;2022-10-31T04:58:20;34.67;;;28.00;;
17482;SDS011;8858;52.308;20.994;2022-10-31T05:00:51;35.23;;;28.93;;
17482;SDS011;8858;52.308;20.994;2022-10-31T05:03:20;39.37;;;28.80;;
17482;SDS011;8858;52.308;20.994;2022-10-31T05:05:49;36.27;;;28.97;;
17482;SDS011;8858;52.308;20.994;2022-10-31T05:08:19;36.47;;;29.67;;
17482;SDS011;8858;52.308;20.994;2022-10-31T05:10:50;38.07;;;29.43;;
17482;SDS011;8858;52.308;20.994;2022-10-31T05:13:21;41.10;;;30.00;;
17482;SDS011;8858;52.308;20.994;2022-10-31T05:16:08;49.83;;;29.73;;
17482;SDS011;8858;52.308;20.994;2022-10-31T05:18:48;43.17;;;29.87;;
17482;SDS011;8858;52.308;20.994;2022-10-31T05:21:45;38.33;;;29.17;;
17482;SDS011;8858;52.308;20.994;2022-10-31T05:24:15;41.13;;;29.60;;
17482;SDS011;8858;52.308;20.994;2022-10-31T05:26:46;39.77;;;30.67;;
17482;SDS011;8858;52.308;20.994;2022-10-31T05:29:15;46.93;;;31.40;;
17482;SDS011;8858;52.308;20.994;2022-10-31T05:31:43;37.57;;;29.10;;
17482;SDS011;8858;52.308;20.994;2022-10-31T05:34:35;40.00;;;29.53;;
17482;SDS011;8858;52.308;20.994;2022-10-31T05:37:26;39.00;;;30.53;;
17482;SDS011;8858;52.308;20.994;2022-10-31T05:39:56;39.30;;;30.33;;
17482;SDS011;8858;52.308;20.994;2022-10-31T05:42:33;40.57;;;31.37;;
17482;SDS011;8858;52.308;20.994;2022-10-31T05:45:02;41.10;;;31.67;;
17482;SDS011;8858;52.308;20.994;2022-10-31T05:47:49;37.37;;;29.50;;
17482;SDS011;8858;52.308;20.994;2022-10-31T05:50:37;42.83;;;29.27;;
17482;SDS011;8858;52.308;20.994;2022-10-31T05:53:08;35.27;;;29.87;;
17482;SDS011;8858;52.308;20.994;2022-10-31T05:55:41;35.27;;;28.70;;
17482;SDS011;8858;52.308;20.994;2022-10-31T05:58:17;37.37;;;29.77;;
17482;SDS011;8858;52.308;20.994;2022-10-31T06:00:58;35.20;;;28.93;;
17482;SDS011;8858;52.308;20.994;2022-10-31T06:03:28;37.57;;;27.77;;
17482;SDS011;8858;52.308;20.994;2022-10-31T06:05:59;34.93;;;28.70;;
17482;SDS011;8858;52.308;20.994;2022-10-31T06:08:36;35.87;;;29.23;;
17482;SDS011;8858;52.308;20.994;2022-10-31T06:11:12;33.17;;;28.73;;
17482;SDS011;8858;52.308;20.994;2022-10-31T06:14:03;35.53;;;29.60;;
17482;SDS011;8858;52.308;20.994;2022-10-31T06:16:53;39.00;;;29.70;;
17482;SDS011;8858;52.308;20.994;2022-10-31T06:19:44;32.33;;;28.83;;
17482;SDS011;8858;52.308;20.994;2022-10-31T06:22:18;34.53;;;28.97;;
17482;SDS011;8858;52.308;20.994;2022-10-31T06:24:47;36.20;;;29.27;;
17482;SDS011;8858;52.308;20.994;2022-10-31T06:27:26;37.73;;;29.57;;
17482;SDS011;8858;52.308;20.994;2022-10-31T06:30:09;37.20;;;29.87;;
17482;SDS011;8858;52.308;20.994;2022-10-31T06:32:37;38.13;;;29.27;;
17482;SDS011;8858;52.308;20.994;2022-10-31T06:35:09;37.33;;;29.67;;
17482;SDS011;8858;52.308;20.994;2022-10-31T06:37:39;36.67;;;29.77;;
17482;SDS011;8858;52.308;20.994;2022-10-31T06:40:27;38.30;;;29.93;;
17482;SDS011;8858;52.308;20.994;2022-10-31T06:43:26;36.63;;;30.17;;
17482;SDS011;8858;52.308;20.994;2022-10-31T06:46:15;37.47;;;30.13;;
17482;SDS011;8858;52.308;20.994;2022-10-31T06:49:06;36.07;;;30.23;;
17482;SDS011;8858;52.308;20.994;2022-10-31T06:51:46;38.80;;;29.73;;
17482;SDS011;8858;52.308;20.994;2022-10-31T06:54:16;35.40;;;29.60;;
17482;SDS011;8858;52.308;20.994;2022-10-31T06:56:48;40.67;;;29.67;;
17482;SDS011;8858;52.308;20.994;2022-10-31T06:59:17;37.60;;;30.17;;
17482;SDS011;8858;52.308;20.994;2022-10-31T07:02:07;38.37;;;29.47;;
17482;SDS011;8858;52.308;20.994;2022-10-31T07:04:38;38.57;;;29.33;;
17482;SDS011;8858;52.308;20.994;2022-10-31T07:07:11;36.80;;;29.80;;
17482;SDS011;8858;52.308;20.994;2022-10-31T07:09:39;40.83;;;29.20;;
17482;SDS011;8858;52.308;20.994;2022-10-31T07:12:09;38.30;;;28.47;;
17482;SDS011;8858;52.308;20.994;2022-10-31T07:14:47;37.83;;;27.40;;
17482;SDS011;8858;52.308;20.994;2022-10-31T07:17:18;32.10;;;25.83;;
17482;SDS011;8858;52.308;20.994;2022-10-31T07:19:57;32.30;;;25.20;;
17482;SDS011;8858;52.308;20.994;2022-10-31T07:22:32;34.60;;;24.57;;
17482;SDS011;8858;52.308;20.994;2022-10-31T07:25:02;34.57;;;24.70;;
17482;SDS011;8858;52.308;20.994;2022-10-31T07:27:53;36.00;;;25.27;;
17482;SDS011;8858;52.308;20.994;2022-10-31T07:30:23;40.13;;;25.83;;
17482;SDS011;8858;52.308;20.994;2022-10-31T07:32:54;35.03;;;25.00;;
17482;SDS011;8858;52.308;20.994;2022-10-31T07:35:37;37.40;;;25.17;;
17482;SDS011;8858;52.308;20.994;2022-10-31T07:38:06;43.70;;;26.23;;
17482;SDS011;8858;52.308;20.994;2022-10-31T07:40:36;43.77;;;27.43;;
17482;SDS011;8858;52.308;20.994;2022-10-31T07:43:07;42.70;;;27.00;;
17482;SDS011;8858;52.308;20.994;2022-10-31T07:46:06;43.17;;;26.30;;
17482;SDS011;8858;52.308;20.994;2022-10-31T07:49:13;42.83;;;25.70;;
17482;SDS011;8858;52.308;20.994;2022-10-31T07:52:02;42.93;;;25.93;;
17482;SDS011;8858;52.308;20.994;2022-10-31T07:55:09;46.87;;;28.40;;
17482;SDS011;8858;52.308;20.994;2022-10-31T07:57:45;47.67;;;29.93;;
17482;SDS011;8858;52.308;20.994;2022-10-31T08:00:14;57.90;;;31.90;;
17482;SDS011;8858;52.308;20.994;2022-10-31T08:02:44;44.50;;;27.80;;
17482;SDS011;8858;52.308;20.994;2022-10-31T08:05:42;41.43;;;27.63;;
17482;SDS011;8858;52.308;20.994;2022-10-31T08:08:31;44.30;;;28.97;;
17482;SDS011;8858;52.308;20.994;2022-10-31T08:11:04;48.93;;;29.47;;
17482;SDS011;8858;52.308;20.994;2022-10-31T08:13:33;48.33;;;29.70;;
17482;SDS011;8858;52.308;20.994;2022-10-31T08:16:05;45.23;;;28.97;;
17482;SDS011;8858;52.308;20.994;2022-10-31T08:18:43;42.77;;;27.63;;
17482;SDS011;8858;52.308;20.994;2022-10-31T08:21:13;44.80;;;27.77;;
17482;SDS011;8858;52.308;20.994;2022-10-31T08:23:45;44.67;;;26.47;;
17482;SDS011;8858;52.308;20.994;2022-10-31T08:26:20;43.97;;;25.90;;
17482;SDS011;8858;52.308;20.994;2022-10-31T08:28:51;35.80;;;24.60;;
17482;SDS011;8858;52.308;20.994;2022-10-31T08:31:28;36.23;;;24.53;;
17482;SDS011;8858;52.308;20.994;2022-10-31T08:34:40;38.30;;;23.57;;
17482;SDS011;8858;52.308;20.994;2022-10-31T08:37:31;41.47;;;23.70;;
17482;SDS011;8858;52.308;20.994;2022-10-31T08:40:02;39.83;;;23.97;;
17482;SDS011;8858;52.308;20.994;2022-10-31T08:42:33;34.90;;;23.73;;
17482;SDS011;8858;52.308;20.994;2022-10-31T08:45:01;34.10;;;22.70;;
17482;SDS011;8858;52.308;20.994;2022-10-31T08:47:34;31.97;;;21.23;;
17482;SDS011;8858;52.308;20.994;2022-10-31T08:50:06;29.53;;;20.43;;
17482;SDS011;8858;52.308;20.994;2022-10-31T08:52:36;28.40;;;20.50;;
17482;SDS011;8858;52.308;20.994;2022-10-31T08:55:25;25.37;;;18.80;;
17482;SDS011;8858;52.308;20.994;2022-10-31T08:58:06;25.83;;;19.37;;
17482;SDS011;8858;52.308;20.994;2022-10-31T09:00:43;23.90;;;18.03;;
17482;SDS011;8858;52.308;20.994;2022-10-31T09:03:20;30.00;;;19.13;;
17482;SDS011;8858;52.308;20.994;2022-10-31T09:05:55;28.03;;;18.97;;
17482;SDS011;8858;52.308;20.994;2022-10-31T09:08:28;31.97;;;17.90;;
17482;SDS011;8858;52.308;20.994;2022-10-31T09:11:01;23.13;;;16.53;;
17482;SDS011;8858;52.308;20.994;2022-10-31T09:13:53;24.43;;;17.33;;
17482;SDS011;8858;52.308;20.994;2022-10-31T09:16:28;23.23;;;17.40;;
17482;SDS011;8858;52.308;20.994;2022-10-31T09:18:57;27.17;;;17.67;;
17482;SDS011;8858;52.308;20.994;2022-10-31T09:21:27;22.10;;;17.70;;
17482;SDS011;8858;52.308;20.994;2022-10-31T09:23:57;22.90;;;16.80;;
17482;SDS011;8858;52.308;20.994;2022-10-31T09:26:27;22.63;;;16.43;;
17482;SDS011;8858;52.308;20.994;2022-10-31T09:29:06;23.20;;;18.17;;
17482;SDS011;8858;52.308;20.994;2022-10-31T09:31:38;23.67;;;17.47;;
17482;SDS011;8858;52.308;20.994;2022-10-31T09:34:42;24.60;;;18.93;;
17482;SDS011;8858;52.308;20.994;2022-10-31T09:37:18;28.07;;;19.03;;
17482;SDS011;8858;52.308;20.994;2022-10-31T09:39:47;26.93;;;20.00;;
17482;SDS011;8858;52.308;20.994;2022-10-31T09:42:31;28.93;;;19.73;;
17482;SDS011;8858;52.308;20.994;2022-10-31T09:45:18;23.80;;;19.43;;
17482;SDS011;8858;52.308;20.994;2022-10-31T09:47:54;21.27;;;18.57;;
17482;SDS011;8858;52.308;20.994;2022-10-31T09:50:58;24.83;;;19.13;;
17482;SDS011;8858;52.308;20.994;2022-10-31T09:53:33;24.77;;;20.60;;
17482;SDS011;8858;52.308;20.994;2022-10-31T09:56:08;25.83;;;20.37;;
17482;SDS011;8858;52.308;20.994;2022-10-31T09:59:05;25.83;;;20.20;;
17482;SDS011;8858;52.308;20.994;2022-10-31T10:01:41;30.23;;;22.00;;
17482;SDS011;8858;52.308;20.994;2022-10-31T10:04:29;27.97;;;22.00;;
17482;SDS011;8858;52.308;20.994;2022-10-31T10:07:16;31.23;;;22.90;;
17482;SDS011;8858;52.308;20.994;2022-10-31T10:10:09;28.30;;;23.47;;
17482;SDS011;8858;52.308;20.994;2022-10-31T10:13:10;29.20;;;22.57;;
17482;SDS011;8858;52.308;20.994;2022-10-31T10:16:00;33.30;;;23.10;;
17482;SDS011;8858;52.308;20.994;2022-10-31T10:18:43;30.10;;;21.90;;
17482;SDS011;8858;52.308;20.994;2022-10-31T10:21:32;29.87;;;22.60;;
17482;SDS011;8858;52.308;20.994;2022-10-31T10:24:12;34.33;;;27.13;;
17482;SDS011;8858;52.308;20.994;2022-10-31T10:26:56;35.87;;;26.27;;
17482;SDS011;8858;52.308;20.994;2022-10-31T10:29:33;31.80;;;22.57;;
17482;SDS011;8858;52.308;20.994;2022-10-31T10:32:09;31.23;;;22.67;;
17482;SDS011;8858;52.308;20.994;2022-10-31T10:34:43;25.87;;;22.33;;
17482;SDS011;8858;52.308;20.994;2022-10-31T10:37:19;38.13;;;23.43;;
17482;SDS011;8858;52.308;20.994;2022-10-31T10:39:53;30.27;;;23.30;;
17482;SDS011;8858;52.308;20.994;2022-10-31T10:42:25;27.20;;;23.50;;
17482;SDS011;8858;52.308;20.994;2022-10-31T10:45:14;28.43;;;24.53;;
17482;SDS011;8858;52.308;20.994;2022-10-31T10:48:05;28.00;;;24.43;;
17482;SDS011;8858;52.308;20.994;2022-10-31T10:50:40;27.90;;;23.97;;
17482;SDS011;8858;52.308;20.994;2022-10-31T10:53:19;28.63;;;24.77;;
17482;SDS011;8858;52.308;20.994;2022-10-31T10:56:04;33.63;;;26.37;;
17482;SDS011;8858;52.308;20.994;2022-10-31T10:58:44;30.13;;;23.87;;
17482;SDS011;8858;52.308;20.994;2022-10-31T11:01:13;27.30;;;22.50;;
17482;SDS011;8858;52.308;20.994;2022-10-31T11:03:43;26.60;;;21.83;;
17482;SDS011;8858;52.308;20.994;2022-10-31T11:06:18;24.63;;;22.03;;
17482;SDS011;8858;52.308;20.994;2022-10-31T11:08:51;24.10;;;20.30;;
17482;SDS011;8858;52.308;20.994;2022-10-31T11:11:24;23.63;;;20.53;;
17482;SDS011;8858;52.308;20.994;2022-10-31T11:14:03;21.75;;;19.48;;
17482;SDS011;8858;52.308;20.994;2022-10-31T11:16:33;23.83;;;19.27;;
17482;SDS011;8858;52.308;20.994;2022-10-31T11:19:07;19.80;;;17.70;;
17482;SDS011;8858;52.308;20.994;2022-10-31T11:21:42;20.13;;;18.00;;
17482;SDS011;8858;52.308;20.994;2022-10-31T11:24:20;20.70;;;18.17;;
17482;SDS011;8858;52.308;20.994;2022-10-31T11:27:02;21.73;;;16.60;;
17482;SDS011;8858;52.308;20.994;2022-10-31T11:29:40;20.17;;;17.42;;
17482;SDS011;8858;52.308;20.994;2022-10-31T11:32:15;21.65;;;17.58;;
17482;SDS011;8858;52.308;20.994;2022-10-31T11:34:48;22.90;;;18.05;;
17482;SDS011;8858;52.308;20.994;2022-10-31T11:37:20;24.13;;;17.42;;
17482;SDS011;8858;52.308;20.994;2022-10-31T11:39:55;19.05;;;17.13;;
17482;SDS011;8858;52.308;20.994;2022-10-31T11:42:26;22.20;;;17.95;;
17482;SDS011;8858;52.308;20.994;2022-10-31T11:44:59;23.05;;;18.08;;
17482;SDS011;8858;52.308;20.994;2022-10-31T11:47:33;22.08;;;17.52;;
17482;SDS011;8858;52.308;20.994;2022-10-31T11:50:10;22.13;;;17.58;;
17482;SDS011;8858;52.308;20.994;2022-10-31T11:52:46;19.52;;;16.60;;
17482;SDS011;8858;52.308;20.994;2022-10-31T11:55:16;20.92;;;16.65;;
17482;SDS011;8858;52.308;20.994;2022-10-31T11:57:58;28.98;;;25.20;;
17482;SDS011;8858;52.308;20.994;2022-10-31T12:00:33;21.27;;;18.60;;
17482;SDS011;8858;52.308;20.994;2022-10-31T12:03:10;19.17;;;17.17;;
17482;SDS011;8858;52.308;20.994;2022-10-31T12:05:43;21.70;;;17.65;;
17482;SDS011;8858;52.308;20.994;2022-10-31T12:08:15;19.67;;;16.15;;
17482;SDS011;8858;52.308;20.994;2022-10-31T12:10:48;19.17;;;16.98;;
17482;SDS011;8858;52.308;20.994;2022-10-31T12:13:30;17.98;;;15.50;;
17482;SDS011;8858;52.308;20.994;2022-10-31T12:16:06;22.30;;;16.13;;
17482;SDS011;8858;52.308;20.994;2022-10-31T12:18:43;17.80;;;15.90;;
17482;SDS011;8858;52.308;20.994;2022-10-31T12:24:21;15.95;;;14.30;;
17482;SDS011;8858;52.308;20.994;2022-10-31T12:27:03;18.95;;;15.70;;
17482;SDS011;8858;52.308;20.994;2022-10-31T12:29:51;20.55;;;15.13;;
17482;SDS011;8858;52.308;20.994;2022-10-31T12:32:32;21.48;;;15.07;;
17482;SDS011;8858;52.308;20.994;2022-10-31T12:38:16;17.60;;;15.10;;
17482;SDS011;8858;52.308;20.994;2022-10-31T12:41:02;19.35;;;14.60;;
17482;SDS011;8858;52.308;20.994;2022-10-31T12:43:46;21.38;;;15.07;;
17482;SDS011;8858;52.308;20.994;2022-10-31T12:46:24;17.98;;;15.40;;
17482;SDS011;8858;52.308;20.994;2022-10-31T12:49:12;18.80;;;15.32;;
17482;SDS011;8858;52.308;20.994;2022-10-31T12:51:58;18.17;;;14.73;;
17482;SDS011;8858;52.308;20.994;2022-10-31T12:54:49;19.70;;;14.35;;
17482;SDS011;8858;52.308;20.994;2022-10-31T12:57:28;20.40;;;14.90;;
17482;SDS011;8858;52.308;20.994;2022-10-31T13:00:10;18.98;;;14.73;;
17482;SDS011;8858;52.308;20.994;2022-10-31T13:02:43;16.83;;;14.55;;
17482;SDS011;8858;52.308;20.994;2022-10-31T13:05:19;20.77;;;14.98;;
17482;SDS011;8858;52.308;20.994;2022-10-31T13:07:59;20.00;;;13.43;;
17482;SDS011;8858;52.308;20.994;2022-10-31T13:10:34;20.20;;;16.42;;
17482;SDS011;8858;52.308;20.994;2022-10-31T13:13:11;25.58;;;17.33;;
17482;SDS011;8858;52.308;20.994;2022-10-31T13:15:47;19.38;;;14.80;;
17482;SDS011;8858;52.308;20.994;2022-10-31T13:18:21;18.42;;;14.70;;
17482;SDS011;8858;52.308;20.994;2022-10-31T13:20:55;18.42;;;13.95;;
17482;SDS011;8858;52.308;20.994;2022-10-31T13:23:28;20.77;;;14.93;;
17482;SDS011;8858;52.308;20.994;2022-10-31T13:26:20;22.70;;;14.50;;
17482;SDS011;8858;52.308;20.994;2022-10-31T13:28:54;15.52;;;11.95;;
17482;SDS011;8858;52.308;20.994;2022-10-31T13:31:29;17.65;;;13.68;;
17482;SDS011;8858;52.308;20.994;2022-10-31T13:33:58;17.98;;;14.98;;
17482;SDS011;8858;52.308;20.994;2022-10-31T13:36:36;20.02;;;16.40;;
17482;SDS011;8858;52.308;20.994;2022-10-31T13:39:14;19.88;;;15.55;;
17482;SDS011;8858;52.308;20.994;2022-10-31T13:41:51;18.70;;;15.02;;
17482;SDS011;8858;52.308;20.994;2022-10-31T13:44:22;19.80;;;14.57;;
17482;SDS011;8858;52.308;20.994;2022-10-31T13:46:53;19.85;;;13.75;;
17482;SDS011;8858;52.308;20.994;2022-10-31T13:49:38;17.70;;;13.98;;
17482;SDS011;8858;52.308;20.994;2022-10-31T13:52:15;16.05;;;13.20;;
17482;SDS011;8858;52.308;20.994;2022-10-31T13:54:53;18.38;;;13.45;;
17482;SDS011;8858;52.308;20.994;2022-10-31T13:57:27;18.65;;;13.38;;
17482;SDS011;8858;52.308;20.994;2022-10-31T14:00:06;18.33;;;14.80;;
17482;SDS011;8858;52.308;20.994;2022-10-31T14:02:51;19.13;;;15.35;;
17482;SDS011;8858;52.308;20.994;2022-10-31T14:05:26;20.27;;;15.40;;
17482;SDS011;8858;52.308;20.994;2022-10-31T14:07:59;19.55;;;15.82;;
17482;SDS011;8858;52.308;20.994;2022-10-31T14:10:33;19.17;;;15.85;;
17482;SDS011;8858;52.308;20.994;2022-10-31T14:13:05;20.58;;;18.15;;
17482;SDS011;8858;52.308;20.994;2022-10-31T14:15:38;24.90;;;18.95;;
17482;SDS011;8858;52.308;20.994;2022-10-31T14:18:17;24.48;;;18.92;;
17482;SDS011;8858;52.308;20.994;2022-10-31T14:20:50;31.40;;;25.35;;
17482;SDS011;8858;52.308;20.994;2022-10-31T14:26:17;32.90;;;24.08;;
17482;SDS011;8858;52.308;20.994;2022-10-31T14:28:51;30.52;;;22.75;;
17482;SDS011;8858;52.308;20.994;2022-10-31T14:31:33;28.60;;;22.05;;
17482;SDS011;8858;52.308;20.994;2022-10-31T14:34:18;30.35;;;21.35;;
17482;SDS011;8858;52.308;20.994;2022-10-31T14:36:55;27.25;;;21.90;;
17482;SDS011;8858;52.308;20.994;2022-10-31T14:39:31;27.02;;;23.17;;
17482;SDS011;8858;52.308;20.994;2022-10-31T14:42:08;30.40;;;23.42;;
17482;SDS011;8858;52.308;20.994;2022-10-31T14:44:55;28.63;;;23.00;;
17482;SDS011;8858;52.308;20.994;2022-10-31T14:47:52;27.45;;;23.33;;
17482;SDS011;8858;52.308;20.994;2022-10-31T14:50:40;29.93;;;24.03;;
17482;SDS011;8858;52.308;20.994;2022-10-31T14:53:14;31.33;;;25.05;;
17482;SDS011;8858;52.308;20.994;2022-10-31T14:55:49;34.05;;;24.98;;
17482;SDS011;8858;52.308;20.994;2022-10-31T14:58:21;35.43;;;24.53;;
17482;SDS011;8858;52.308;20.994;2022-10-31T15:00:56;28.27;;;24.43;;
17482;SDS011;8858;52.308;20.994;2022-10-31T15:03:28;33.10;;;23.93;;
17482;SDS011;8858;52.308;20.994;2022-10-31T15:06:02;34.90;;;26.77;;
17482;SDS011;8858;52.308;20.994;2022-10-31T15:08:34;38.20;;;29.70;;
17482;SDS011;8858;52.308;20.994;2022-10-31T15:11:13;36.57;;;27.93;;
17482;SDS011;8858;52.308;20.994;2022-10-31T15:13:44;33.53;;;26.90;;
17482;SDS011;8858;52.308;20.994;2022-10-31T15:16:18;38.83;;;28.60;;
17482;SDS011;8858;52.308;20.994;2022-10-31T15:18:49;31.97;;;27.37;;
17482;SDS011;8858;52.308;20.994;2022-10-31T15:21:20;34.70;;;27.53;;
17482;SDS011;8858;52.308;20.994;2022-10-31T15:23:51;37.60;;;28.17;;
17482;SDS011;8858;52.308;20.994;2022-10-31T15:26:25;31.37;;;27.07;;
17482;SDS011;8858;52.308;20.994;2022-10-31T15:29:00;34.43;;;27.43;;
17482;SDS011;8858;52.308;20.994;2022-10-31T15:31:31;36.37;;;27.23;;
17482;SDS011;8858;52.308;20.994;2022-10-31T15:34:00;36.10;;;27.27;;